Airfield :
LOGIN :

Register | Disclaimer

   EN    FR    IT 

 










Legend :    VFR   Marginal VFR   IFR   Intensive IFR   Very Intensive IFR
Visi :
Ceiling :
>= 8 km
>= 3000ft
5 to 8 km
1000 to 3000 ft
1500m to 5 km
500 to 1000 ft
800 to 1500m
200 to 500 ft
< 800m
< 200 ft
Symbols :   Thunderstorms  Fog  Heavy snow  Heavy precipitations  Wind > 20 kt
SIGMETs :     Misc.  Thunderstorms  Icing  Turbulence  Mountain Waves  Volcanic Ashes







- Airport Elevation : 784 ft
- IATA code : TZL


LQTZ - Tuzla

CURRENT METAR :
  • 221730Z 29006KT 7000 FEW008 SCT045 22/20 Q1010

EXPIRED METARs :
  • 221700Z 35005KT 8000 3700W BR FEW008 SCT043 22/19 Q1010
  • 221630Z VRB01KT 9999 4900W BR FEW025 SCT038 22/19 Q1009
  • 221600Z 20004KT 150V220 5000 -SHRA BR FEW040TCU BKN050 22/19 Q1009
  • 221530Z 01004KT 330V060 5000 -TSRA BR FEW040CB BKN045 22/19 Q1009
  • 221500Z 30006KT 9999 -TSRA FEW040CB BKN045 22/18 Q1010

TAF TAF LQTZ
Valid from the 22 at 18:00 until the 23 at 18:00 UTC


221700Z 2218/2318 06005KT 9999 SCT040 TX22/2313Z TN17/2303Z
PROB30
TEMPO 2218/2220 29015KT 4000 TSRA FEW035CB BKN040
PROB30
TEMPO 2221/2306 2000 BR BKN005
PROB40
TEMPO 2306/2318 VRB15KT 4000 TSRA FEW010 FEW030CB BKN040
No reported NOTAMs for that airfield.



MET'MAP, your aeronautical weather chart ! - Copyright ORBIFLY December 2007 - Disclaimer

ORBIFLY MET'MAP TEAM :

Programming & Development : Alexandra Zaïnal
Concept & Development : Baudouin d'Aumeries
Co-Development & Prog : Marc-Olivier Méhu
Technical & hardware support : Manuel Goepfert

Contact : metmap@orbifly.com




SOURCES & CREDITS :

   NOAA